createdAt,value
2023-05-07T00:30:34.790Z,16.9
2023-05-07T00:36:27.560Z,16.9
2023-05-07T00:42:20.077Z,16.9
2023-05-07T00:47:56.944Z,16.9
2023-05-07T00:53:48.951Z,16.9
2023-05-07T00:59:40.746Z,16.9
2023-05-07T01:05:38.955Z,16.9
2023-05-07T01:11:17.529Z,16.9
2023-05-07T01:17:09.641Z,16.9
2023-05-07T01:23:01.887Z,16.9
2023-05-07T01:28:53.719Z,16.9
2023-05-07T01:34:46.334Z,16.9
2023-05-07T01:40:38.775Z,16.9
2023-05-07T01:46:30.773Z,16.9
2023-05-07T01:52:23.856Z,16.9
2023-05-07T01:58:14.843Z,16.9
2023-05-07T02:04:08.871Z,16.8
2023-05-07T02:09:59.762Z,16.8
2023-05-07T02:15:52.269Z,16.8
2023-05-07T02:21:47.010Z,16.8
2023-05-07T02:27:39.716Z,16.8
2023-05-07T02:33:31.709Z,16.8
2023-05-07T02:39:23.052Z,16.8
2023-05-07T02:45:15.167Z,16.8
2023-05-07T02:51:06.746Z,16.8
2023-05-07T02:57:01.745Z,16.8
2023-05-07T03:02:55.406Z,16.8
2023-05-07T03:08:47.549Z,16.8
2023-05-07T03:14:39.540Z,16.8
2023-05-07T03:20:32.665Z,16.8
2023-05-07T03:26:26.506Z,16.8
2023-05-07T03:32:18.491Z,16.7
2023-05-07T03:38:10.773Z,16.7
2023-05-07T03:44:03.939Z,16.7
2023-05-07T03:49:55.676Z,16.7
2023-05-07T03:55:48.659Z,16.7
2023-05-07T04:01:40.573Z,16.7
2023-05-07T04:07:34.563Z,16.7
2023-05-07T04:13:26.909Z,16.7
2023-05-07T04:19:19.213Z,16.7
2023-05-07T04:25:11.274Z,16.7
2023-05-07T04:31:04.051Z,16.6
2023-05-07T04:36:55.673Z,16.6
2023-05-07T04:42:47.808Z,16.6
2023-05-07T04:48:40.920Z,16.6
2023-05-07T04:54:32.749Z,16.6
2023-05-07T05:00:25.546Z,16.6
2023-05-07T05:06:19.036Z,16.6
2023-05-07T05:12:10.370Z,16.6
2023-05-07T05:18:03.234Z,16.6
2023-05-07T05:23:55.284Z,16.6
2023-05-07T05:29:46.467Z,16.6
2023-05-07T05:35:40.517Z,16.6
2023-05-07T05:41:32.694Z,16.6
2023-05-07T05:47:11.253Z,16.6
2023-05-07T05:53:04.067Z,16.6
2023-05-07T05:58:56.787Z,16.6
2023-05-07T06:04:48.530Z,16.6
2023-05-07T06:10:40.823Z,16.6
2023-05-07T06:16:33.365Z,16.6
2023-05-07T06:22:24.645Z,16.6
2023-05-07T06:28:18.651Z,16.6
2023-05-07T06:34:11.518Z,16.6
2023-05-07T06:40:03.557Z,16.6
2023-05-07T06:45:55.265Z,16.6
2023-05-07T06:51:33.309Z,16.6
2023-05-07T06:57:26.175Z,16.6
2023-05-07T07:03:18.921Z,16.6
2023-05-07T07:09:11.506Z,16.6
2023-05-07T07:15:03.780Z,16.6
2023-05-07T07:20:57.104Z,16.6
2023-05-07T07:26:51.276Z,16.6
2023-05-07T07:32:44.659Z,16.6
2023-05-07T07:38:48.034Z,16.6
2023-05-07T07:44:41.704Z,16.6
2023-05-07T07:50:52.344Z,16.6
2023-05-07T07:56:50.311Z,16.6
2023-05-07T08:02:46.646Z,16.6
2023-05-07T08:08:28.461Z,16.6
2023-05-07T08:14:22.916Z,16.6
2023-05-07T08:20:17.080Z,16.6
2023-05-07T08:26:11.848Z,16.7
2023-05-07T08:32:07.044Z,16.7
2023-05-07T08:38:02.589Z,16.7
2023-05-07T08:43:58.676Z,16.7
2023-05-07T08:49:53.545Z,16.7
2023-05-07T08:55:47.954Z,16.7
2023-05-07T09:01:42.753Z,16.7
2023-05-07T09:07:22.608Z,16.7
2023-05-07T09:13:19.820Z,16.7
2023-05-07T09:18:59.353Z,16.7
2023-05-07T09:24:55.945Z,16.8
2023-05-07T09:30:53.320Z,16.8
2023-05-07T09:36:49.411Z,16.8
2023-05-07T09:42:46.800Z,16.8
2023-05-07T09:48:40.572Z,16.8
2023-05-07T09:54:33.954Z,16.8
2023-05-07T10:00:31.412Z,16.8
2023-05-07T10:06:28.364Z,16.8
2023-05-07T10:12:21.591Z,16.8
2023-05-07T10:18:17.846Z,16.8
2023-05-07T10:24:14.422Z,16.8
2023-05-07T10:30:10.068Z,16.8
2023-05-07T10:36:06.463Z,16.8
2023-05-07T10:41:45.943Z,16.8
2023-05-07T10:47:40.115Z,16.8
2023-05-07T10:53:38.503Z,16.8
2023-05-07T10:59:40.207Z,16.8
2023-05-07T11:05:44.947Z,16.8
2023-05-07T11:11:39.187Z,16.8
2023-05-07T11:17:36.505Z,16.9
2023-05-07T11:23:33.574Z,16.9
2023-05-07T11:29:28.281Z,16.9
2023-05-07T11:35:23.040Z,16.9
2023-05-07T11:41:01.787Z,16.9
2023-05-07T11:47:01.484Z,16.9
2023-05-07T11:52:57.220Z,16.9
2023-05-07T11:58:51.856Z,16.9
2023-05-07T12:04:46.991Z,16.9
2023-05-07T12:33:05.814Z,17.1
2023-05-07T12:38:59.240Z,17.1
2023-05-07T12:44:39.497Z,17.1
2023-05-07T12:50:18.854Z,17.1
2023-05-07T12:55:57.164Z,17.1
2023-05-07T13:01:36.228Z,17.1
2023-05-07T13:07:15.477Z,17.1
2023-05-07T13:12:54.053Z,17.1
2023-05-07T13:18:52.739Z,17.1
2023-05-07T13:24:31.545Z,17.2
2023-05-07T13:30:52.802Z,17.2
2023-05-07T13:36:47.599Z,17.2
2023-05-07T13:42:41.446Z,17.2
2023-05-07T13:48:33.778Z,17.3
2023-05-07T13:54:11.366Z,17.3
2023-05-07T14:00:18.806Z,17.3
2023-05-07T14:05:56.928Z,17.3
2023-05-07T14:11:52.405Z,17.3
2023-05-07T14:17:44.625Z,17.3
2023-05-07T14:23:39.711Z,17.3
2023-05-07T14:29:48.795Z,17.3
2023-05-07T14:35:40.765Z,17.3
2023-05-07T14:41:33.261Z,17.4
2023-05-07T14:47:26.342Z,17.4
2023-05-07T14:53:17.213Z,17.4
2023-05-07T14:59:12.013Z,17.4
2023-05-07T15:05:08.548Z,17.4
2023-05-07T15:10:59.757Z,17.4
2023-05-07T15:16:51.937Z,17.5
2023-05-07T15:22:47.638Z,17.5
2023-05-07T15:28:40.304Z,17.5
2023-05-07T15:34:33.481Z,17.5
2023-05-07T15:40:25.511Z,17.5
2023-05-07T15:46:16.933Z,17.6
2023-05-07T15:52:09.372Z,17.6
2023-05-07T15:58:02.210Z,17.6
2023-05-07T16:03:55.942Z,17.6
2023-05-07T16:09:48.928Z,17.6
2023-05-07T16:15:41.774Z,17.6
2023-05-07T16:21:35.744Z,17.6
2023-05-07T16:27:27.573Z,17.6
2023-05-07T16:33:19.231Z,17.6
2023-05-07T16:39:12.288Z,17.6
2023-05-07T16:45:07.477Z,17.6
2023-05-07T16:50:44.013Z,17.6
2023-05-07T16:56:21.068Z,17.6
2023-05-07T17:02:29.900Z,17.6
2023-05-07T17:08:22.220Z,17.7
2023-05-07T17:14:15.980Z,17.7
2023-05-07T17:20:08.087Z,17.7
2023-05-07T17:25:59.815Z,17.7
2023-05-07T17:31:51.275Z,17.7
2023-05-07T17:38:00.122Z,17.7
2023-05-07T17:43:36.362Z,17.7
2023-05-07T17:49:27.742Z,17.8
2023-05-07T17:55:28.990Z,17.7
2023-05-07T18:01:18.543Z,17.8
2023-05-07T18:07:10.087Z,17.7
2023-05-07T18:12:46.622Z,17.8
2023-05-07T18:18:38.967Z,17.8
2023-05-07T18:24:32.000Z,17.8
2023-05-07T18:30:24.254Z,17.8
2023-05-07T18:36:04.060Z,17.8
2023-05-07T18:41:55.840Z,17.8
2023-05-07T18:47:48.397Z,17.8
2023-05-07T18:53:40.850Z,17.8
2023-05-07T18:59:15.883Z,17.8
2023-05-07T19:05:08.065Z,17.8
2023-05-07T19:11:11.869Z,17.8
2023-05-07T19:17:06.727Z,17.8
2023-05-07T19:22:59.169Z,17.8
2023-05-07T19:29:07.148Z,17.8
2023-05-07T19:35:04.973Z,17.8
2023-05-07T19:40:42.703Z,17.8
2023-05-07T19:46:35.801Z,17.8
2023-05-07T19:52:30.413Z,17.8
2023-05-07T19:58:24.613Z,17.8
2023-05-07T20:04:19.222Z,17.8
2023-05-07T20:09:56.850Z,17.8
2023-05-07T20:15:36.130Z,17.8
2023-05-07T20:21:30.852Z,17.8
2023-05-07T20:27:06.755Z,17.8
2023-05-07T20:32:59.091Z,17.8
2023-05-07T20:38:51.335Z,17.8
2023-05-07T20:44:42.951Z,17.8
2023-05-07T20:50:38.000Z,17.7
2023-05-07T20:56:32.844Z,17.8
2023-05-07T21:02:25.354Z,17.8
2023-05-07T21:08:17.541Z,17.7
2023-05-07T21:14:09.753Z,17.8
2023-05-07T21:20:01.673Z,17.7
2023-05-07T21:25:53.474Z,17.7
2023-05-07T21:31:30.281Z,17.8
2023-05-07T21:37:22.581Z,17.7
2023-05-07T21:43:15.161Z,17.8
2023-05-07T21:49:07.290Z,17.7
2023-05-07T21:54:57.939Z,17.7
2023-05-07T22:01:05.739Z,17.7
2023-05-07T22:06:59.052Z,17.7
2023-05-07T22:12:49.834Z,17.7
2023-05-07T22:18:55.267Z,17.7
2023-05-07T22:24:48.501Z,17.7
2023-05-07T22:30:23.689Z,17.7
2023-05-07T22:36:19.210Z,17.7
2023-05-07T22:42:11.588Z,17.7
2023-05-07T22:48:04.080Z,17.6
2023-05-07T22:53:56.476Z,17.6
2023-05-07T22:59:48.001Z,17.7
2023-05-07T23:05:39.758Z,17.6
2023-05-07T23:11:31.453Z,17.7
2023-05-07T23:17:26.349Z,17.6
2023-05-07T23:23:17.827Z,17.6
2023-05-07T23:29:09.798Z,17.6
2023-05-07T23:35:02.377Z,17.6
2023-05-07T23:40:53.329Z,17.6
2023-05-07T23:46:44.241Z,17.6
2023-05-07T23:52:35.784Z,17.6
2023-05-07T23:58:25.934Z,17.6
